createdAt,value
2023-02-06T00:00:54.290Z,27.07
2023-02-06T00:03:22.262Z,27.87
2023-02-06T00:06:00.039Z,26.43
2023-02-06T00:08:29.305Z,26.60
2023-02-06T00:10:57.313Z,27.77
2023-02-06T00:13:25.238Z,27.33
2023-02-06T00:15:53.189Z,27.00
2023-02-06T00:18:21.101Z,26.73
2023-02-06T00:20:49.032Z,27.70
2023-02-06T00:23:21.659Z,26.40
2023-02-06T00:25:49.579Z,27.63
2023-02-06T00:28:17.638Z,25.93
2023-02-06T00:30:48.601Z,25.60
2023-02-06T00:33:16.704Z,24.07
2023-02-06T00:35:44.626Z,23.03
2023-02-06T00:38:12.850Z,24.50
2023-02-06T00:40:42.164Z,23.13
2023-02-06T00:43:12.637Z,23.93
2023-02-06T00:45:40.574Z,25.83
2023-02-06T00:48:09.195Z,27.07
2023-02-06T00:50:37.188Z,31.33
2023-02-06T00:53:05.119Z,26.90
2023-02-06T00:55:33.351Z,37.57
2023-02-06T00:58:06.231Z,46.00
2023-02-06T01:00:34.417Z,46.10
2023-02-06T01:03:05.432Z,43.07
2023-02-06T01:05:33.486Z,37.87
2023-02-06T01:08:04.265Z,25.60
2023-02-06T01:10:32.450Z,20.60
2023-02-06T01:13:00.445Z,22.37
2023-02-06T01:15:30.239Z,36.10
2023-02-06T01:17:58.464Z,27.10
2023-02-06T01:20:26.455Z,29.07
2023-02-06T01:22:54.600Z,25.37
2023-02-06T01:25:22.570Z,25.13
2023-02-06T01:27:50.602Z,24.20
2023-02-06T01:30:18.803Z,23.47
2023-02-06T01:32:48.107Z,24.90
2023-02-06T01:35:16.061Z,27.70
2023-02-06T01:37:44.077Z,28.07
2023-02-06T01:40:15.802Z,27.47
2023-02-06T01:42:44.499Z,28.03
2023-02-06T01:45:43.787Z,26.50
2023-02-06T01:48:18.521Z,27.20
2023-02-06T01:50:51.168Z,26.37
2023-02-06T01:53:20.122Z,26.43
2023-02-06T01:55:50.881Z,27.50
2023-02-06T01:58:25.478Z,25.40
2023-02-06T02:00:53.550Z,25.70
2023-02-06T02:03:23.371Z,28.13
2023-02-06T02:05:52.375Z,28.93
2023-02-06T02:08:26.680Z,26.27
2023-02-06T02:10:54.778Z,26.07
2023-02-06T02:13:22.755Z,25.83
2023-02-06T02:15:59.621Z,27.07
2023-02-06T02:18:42.088Z,26.27
2023-02-06T02:21:46.084Z,26.67
2023-02-06T02:24:23.474Z,25.90
2023-02-06T02:27:35.141Z,27.70
2023-02-06T02:30:40.383Z,27.73
2023-02-06T02:33:36.129Z,26.67
2023-02-06T02:36:14.639Z,26.80
2023-02-06T02:38:54.705Z,28.33
2023-02-06T02:41:29.891Z,28.37
2023-02-06T02:44:05.704Z,27.37
2023-02-06T02:46:37.558Z,28.80
2023-02-06T02:49:09.690Z,26.80
2023-02-06T02:51:40.148Z,25.87
2023-02-06T02:54:09.120Z,25.63
2023-02-06T02:56:37.184Z,24.23
2023-02-06T02:59:12.071Z,17.13
2023-02-06T03:01:44.016Z,10.27
2023-02-06T03:04:17.596Z,15.30
2023-02-06T03:07:01.752Z,16.80
2023-02-06T03:09:41.100Z,10.40
2023-02-06T03:12:17.427Z,9.03
2023-02-06T03:14:51.792Z,10.07
2023-02-06T03:17:27.350Z,11.43
2023-02-06T03:19:57.962Z,12.27
2023-02-06T03:22:29.455Z,11.73
2023-02-06T03:24:58.949Z,11.93
2023-02-06T03:27:29.541Z,7.30
2023-02-06T03:29:59.899Z,7.97
2023-02-06T03:32:30.893Z,8.10
2023-02-06T03:35:03.984Z,5.90
2023-02-06T03:37:34.024Z,5.90
2023-02-06T03:40:07.353Z,5.60
2023-02-06T03:42:40.078Z,6.20
2023-02-06T03:45:16.173Z,6.70
2023-02-06T03:47:46.050Z,7.50
2023-02-06T03:50:16.116Z,6.03
2023-02-06T03:52:49.991Z,6.80
2023-02-06T03:55:21.279Z,5.67
2023-02-06T03:57:52.835Z,5.93
2023-02-06T04:00:21.402Z,4.67
2023-02-06T04:02:50.189Z,5.30
2023-02-06T04:05:19.561Z,4.90
2023-02-06T04:07:49.015Z,4.97
2023-02-06T04:10:17.254Z,4.00
2023-02-06T04:12:45.327Z,4.37
2023-02-06T04:15:13.281Z,4.20
2023-02-06T04:17:57.553Z,5.60
2023-02-06T04:20:27.114Z,6.40
2023-02-06T04:22:56.415Z,6.57
2023-02-06T04:25:24.630Z,6.70
2023-02-06T04:27:54.876Z,6.27
2023-02-06T04:30:23.011Z,5.83
2023-02-06T04:32:51.068Z,5.70
2023-02-06T04:35:20.474Z,5.40
2023-02-06T04:37:48.688Z,6.10
2023-02-06T04:40:18.810Z,5.53
2023-02-06T04:42:46.802Z,5.33
2023-02-06T04:45:14.728Z,5.87
2023-02-06T04:47:42.695Z,5.60
2023-02-06T04:50:11.595Z,5.70
2023-02-06T04:52:39.554Z,5.90
2023-02-06T04:55:08.216Z,5.30
2023-02-06T04:57:37.751Z,5.40
2023-02-06T05:00:07.197Z,5.30
2023-02-06T05:02:37.645Z,5.50
2023-02-06T05:05:09.436Z,5.47
2023-02-06T05:07:39.687Z,7.30
2023-02-06T05:10:09.252Z,6.27
2023-02-06T05:12:38.791Z,5.73
2023-02-06T05:15:07.609Z,5.60
2023-02-06T05:17:35.833Z,5.30
2023-02-06T05:20:07.485Z,5.53
2023-02-06T05:22:35.607Z,6.20
2023-02-06T05:25:03.694Z,5.60
2023-02-06T05:27:31.708Z,6.33
2023-02-06T05:30:01.114Z,5.90
2023-02-06T05:32:29.040Z,5.57
2023-02-06T05:34:57.100Z,5.60
2023-02-06T05:37:25.062Z,5.43
2023-02-06T05:39:53.021Z,5.43
2023-02-06T05:42:21.047Z,5.57
2023-02-06T05:44:49.106Z,5.63
2023-02-06T05:47:18.651Z,6.10
2023-02-06T05:49:48.417Z,5.40
2023-02-06T05:52:16.546Z,5.40
2023-02-06T05:54:44.760Z,5.87
2023-02-06T05:57:14.973Z,5.90
2023-02-06T05:59:42.906Z,5.77
2023-02-06T06:02:11.079Z,5.53
2023-02-06T06:04:40.394Z,5.80
2023-02-06T06:07:09.592Z,6.50
2023-02-06T06:09:37.559Z,7.90
2023-02-06T06:12:05.702Z,11.73
2023-02-06T06:14:33.745Z,12.20
2023-02-06T06:17:01.903Z,12.23
2023-02-06T06:19:29.815Z,10.87
2023-02-06T06:21:59.429Z,9.93
2023-02-06T06:24:27.830Z,9.33
2023-02-06T06:26:55.736Z,10.57
2023-02-06T06:29:23.706Z,9.50
2023-02-06T06:31:51.725Z,9.83
2023-02-06T06:34:19.814Z,11.90
2023-02-06T06:36:47.800Z,11.37
2023-02-06T06:39:19.865Z,25.93
2023-02-06T06:41:47.864Z,82.83
2023-02-06T06:44:15.812Z,121.30
2023-02-06T06:46:43.724Z,49.83
2023-02-06T06:49:11.726Z,15.67
2023-02-06T06:51:39.837Z,11.97
2023-02-06T06:54:07.914Z,10.77
2023-02-06T06:56:37.199Z,10.23
2023-02-06T06:59:05.187Z,9.13
2023-02-06T07:01:35.495Z,70.13
2023-02-06T07:04:03.479Z,43.87
2023-02-06T07:06:34.287Z,19.73
2023-02-06T07:09:02.472Z,18.17
2023-02-06T07:11:30.662Z,45.17
2023-02-06T07:14:00.216Z,44.43
2023-02-06T07:16:28.383Z,19.37
2023-02-06T07:18:56.438Z,9.23
2023-02-06T07:21:24.392Z,7.83
2023-02-06T07:23:52.384Z,11.27
2023-02-06T07:26:20.302Z,13.70
2023-02-06T07:28:52.802Z,11.30
2023-02-06T07:31:22.320Z,11.77
2023-02-06T07:33:50.497Z,11.43
2023-02-06T07:36:19.568Z,11.63
2023-02-06T07:38:47.565Z,11.70
2023-02-06T07:41:16.142Z,10.73
2023-02-06T07:43:44.087Z,11.23
2023-02-06T07:46:12.276Z,9.90
2023-02-06T07:48:42.518Z,9.53
2023-02-06T07:51:11.332Z,10.13
2023-02-06T07:53:39.692Z,10.53
2023-02-06T07:56:12.358Z,11.67
2023-02-06T07:58:40.266Z,12.27
2023-02-06T08:01:08.555Z,13.43
2023-02-06T08:03:36.925Z,13.97
2023-02-06T08:06:10.663Z,13.87
2023-02-06T08:08:39.127Z,14.60
2023-02-06T08:11:07.913Z,13.23
2023-02-06T08:13:36.666Z,11.83
2023-02-06T08:16:07.154Z,15.03
2023-02-06T08:18:35.434Z,12.27
2023-02-06T08:21:03.695Z,14.50
2023-02-06T08:23:33.562Z,11.70
2023-02-06T08:26:06.368Z,11.27
2023-02-06T08:28:36.078Z,9.50
2023-02-06T08:31:10.795Z,7.83
2023-02-06T08:33:39.016Z,8.17
2023-02-06T08:36:11.058Z,7.80
2023-02-06T08:38:41.276Z,7.00
2023-02-06T08:41:17.527Z,9.17
2023-02-06T08:43:45.847Z,6.90
2023-02-06T08:46:14.144Z,7.30
2023-02-06T08:48:42.246Z,5.60
2023-02-06T08:51:11.291Z,8.70
2023-02-06T08:53:40.900Z,8.60
2023-02-06T08:56:11.517Z,5.03
2023-02-06T08:58:40.201Z,4.53
2023-02-06T09:01:09.323Z,5.13
2023-02-06T09:03:37.966Z,4.47
2023-02-06T09:06:10.390Z,32.67
2023-02-06T09:08:40.459Z,7.30
2023-02-06T09:11:10.073Z,6.90
2023-02-06T09:13:39.300Z,19.93
2023-02-06T09:16:08.522Z,7.30
2023-02-06T09:18:37.097Z,6.27
2023-02-06T09:21:08.234Z,5.30
2023-02-06T09:23:36.302Z,4.13
2023-02-06T09:26:06.366Z,4.20
2023-02-06T09:28:34.699Z,8.63
2023-02-06T09:31:03.027Z,3.57
2023-02-06T09:33:31.581Z,7.27
2023-02-06T09:36:04.915Z,4.40
2023-02-06T09:38:33.092Z,6.47
2023-02-06T09:41:03.345Z,4.27
2023-02-06T09:43:34.404Z,6.87
2023-02-06T09:46:06.183Z,8.47
2023-02-06T09:48:37.642Z,8.30
2023-02-06T09:51:16.232Z,4.73
2023-02-06T09:53:54.392Z,6.67
2023-02-06T09:56:33.889Z,4.00
2023-02-06T09:59:10.931Z,3.57
2023-02-06T10:01:45.465Z,4.27
2023-02-06T10:04:36.710Z,7.27
2023-02-06T10:07:19.175Z,4.70
2023-02-06T10:09:52.028Z,4.43
2023-02-06T10:12:26.105Z,4.20
2023-02-06T10:15:00.530Z,4.43
2023-02-06T10:17:32.344Z,7.07
2023-02-06T10:20:05.409Z,3.80
2023-02-06T10:22:42.049Z,4.33
2023-02-06T10:25:22.490Z,8.13
2023-02-06T10:28:03.401Z,4.27
2023-02-06T10:30:53.786Z,9.10
2023-02-06T10:33:29.512Z,3.77
2023-02-06T10:36:07.860Z,4.37
2023-02-06T10:39:10.239Z,5.83
2023-02-06T10:41:47.492Z,3.80
2023-02-06T10:44:23.014Z,3.67
2023-02-06T10:46:55.877Z,3.90
2023-02-06T10:49:30.524Z,5.93
2023-02-06T10:52:01.775Z,4.33
2023-02-06T10:54:34.893Z,3.07
2023-02-06T10:57:04.248Z,3.67
2023-02-06T10:59:35.907Z,3.27
2023-02-06T11:02:24.909Z,3.50
2023-02-06T11:04:57.355Z,4.07
2023-02-06T11:07:30.102Z,3.70
2023-02-06T11:09:58.316Z,3.43
2023-02-06T11:12:34.355Z,3.57
2023-02-06T11:15:07.851Z,3.33
2023-02-06T11:17:37.808Z,3.40
2023-02-06T11:20:22.029Z,3.50
2023-02-06T11:22:53.292Z,3.10
2023-02-06T11:25:28.172Z,3.43
2023-02-06T11:27:57.710Z,4.77
2023-02-06T11:30:33.594Z,3.30
2023-02-06T11:33:06.936Z,9.80
2023-02-06T11:35:40.149Z,7.77
2023-02-06T11:38:19.424Z,2.43
2023-02-06T11:40:56.633Z,2.97
2023-02-06T11:43:26.329Z,2.53
2023-02-06T11:46:08.891Z,2.67
2023-02-06T11:48:40.900Z,4.20
2023-02-06T11:51:10.330Z,2.40
2023-02-06T11:53:39.144Z,3.10
2023-02-06T11:56:17.474Z,2.87
2023-02-06T11:58:46.188Z,2.50
2023-02-06T12:01:21.699Z,4.57
2023-02-06T12:04:00.123Z,2.37
2023-02-06T12:06:33.255Z,2.10
2023-02-06T12:09:03.265Z,2.37
2023-02-06T12:11:36.518Z,2.87
2023-02-06T12:14:10.790Z,2.30
2023-02-06T12:16:42.893Z,2.60
2023-02-06T12:19:18.417Z,2.10
2023-02-06T12:21:51.124Z,2.20
2023-02-06T12:24:28.769Z,2.37
2023-02-06T12:26:59.156Z,2.20
2023-02-06T12:29:33.698Z,1.97
2023-02-06T12:32:14.805Z,2.30
2023-02-06T12:34:54.054Z,3.73
2023-02-06T12:37:32.548Z,3.70
2023-02-06T12:40:01.923Z,4.40
2023-02-06T12:42:39.792Z,6.77
2023-02-06T12:45:17.677Z,4.30
2023-02-06T12:47:50.229Z,4.97
2023-02-06T12:50:24.945Z,1.90
2023-02-06T12:52:59.884Z,1.90
2023-02-06T12:55:31.876Z,3.87
2023-02-06T12:58:00.508Z,2.00
2023-02-06T13:00:49.635Z,2.00
2023-02-06T13:03:24.998Z,2.10
2023-02-06T13:06:04.204Z,1.93
2023-02-06T13:08:42.496Z,1.97
2023-02-06T13:11:24.009Z,1.80
2023-02-06T13:14:01.671Z,2.07
2023-02-06T13:16:51.922Z,1.90
2023-02-06T13:19:27.751Z,1.77
2023-02-06T13:22:44.841Z,2.10
2023-02-06T13:25:51.189Z,2.40
2023-02-06T13:28:46.589Z,2.17
2023-02-06T13:31:30.711Z,1.67
2023-02-06T13:34:07.257Z,1.70
2023-02-06T13:36:53.936Z,2.90
2023-02-06T13:39:29.876Z,1.60
2023-02-06T13:42:01.121Z,2.00
2023-02-06T13:44:33.759Z,7.10
2023-02-06T13:47:26.189Z,2.13
2023-02-06T13:50:26.225Z,2.13
2023-02-06T13:53:16.018Z,9.67
2023-02-06T13:55:58.964Z,2.20
2023-02-06T13:58:45.944Z,1.87
2023-02-06T14:01:17.760Z,1.93
2023-02-06T14:03:49.814Z,1.90
2023-02-06T14:06:39.697Z,1.83
2023-02-06T14:09:30.778Z,1.40
2023-02-06T14:12:30.610Z,1.60
2023-02-06T14:15:09.351Z,1.70
2023-02-06T14:17:49.274Z,1.70
2023-02-06T14:20:38.053Z,1.60
2023-02-06T14:23:15.831Z,1.50
2023-02-06T14:25:55.382Z,1.77
2023-02-06T14:28:35.785Z,2.53
2023-02-06T14:31:13.120Z,2.27
2023-02-06T14:34:05.348Z,2.23
2023-02-06T14:37:10.270Z,1.70
2023-02-06T14:39:45.217Z,1.90
2023-02-06T14:42:18.479Z,1.70
2023-02-06T14:44:54.057Z,1.70
2023-02-06T14:47:26.329Z,1.80
2023-02-06T14:49:56.324Z,1.77
2023-02-06T14:52:28.545Z,2.63
2023-02-06T14:54:57.615Z,1.83
2023-02-06T14:57:29.327Z,1.63
2023-02-06T15:00:01.255Z,1.57
2023-02-06T15:02:32.176Z,1.50
2023-02-06T15:05:03.521Z,1.73
2023-02-06T15:07:34.466Z,1.53
2023-02-06T15:10:09.369Z,1.60
2023-02-06T15:12:40.561Z,1.67
2023-02-06T15:15:22.028Z,1.43
2023-02-06T15:18:01.401Z,1.53
2023-02-06T15:20:34.984Z,1.37
2023-02-06T15:23:17.847Z,1.67
2023-02-06T15:26:05.226Z,1.60
2023-02-06T15:28:35.423Z,1.53
2023-02-06T15:31:05.467Z,1.67
2023-02-06T15:33:35.957Z,1.77
2023-02-06T15:36:05.457Z,1.43
2023-02-06T15:38:34.783Z,1.73
2023-02-06T15:41:06.799Z,1.30
2023-02-06T15:43:36.681Z,1.40
2023-02-06T15:46:07.254Z,1.53
2023-02-06T15:48:39.718Z,1.83
2023-02-06T15:51:20.613Z,1.90
2023-02-06T15:53:50.708Z,3.13
2023-02-06T15:56:24.439Z,1.83
2023-02-06T15:58:58.865Z,2.60
2023-02-06T16:01:32.062Z,2.30
2023-02-06T16:04:04.867Z,1.80
2023-02-06T16:06:33.192Z,1.77
2023-02-06T16:09:06.501Z,1.80
2023-02-06T16:11:51.284Z,2.17
2023-02-06T16:14:24.563Z,1.40
2023-02-06T16:17:02.872Z,1.70
2023-02-06T16:19:46.419Z,1.80
2023-02-06T16:22:20.294Z,1.97
2023-02-06T16:24:48.858Z,2.07
2023-02-06T16:27:19.920Z,1.90
2023-02-06T16:29:51.102Z,1.80
2023-02-06T16:32:24.862Z,2.00
2023-02-06T16:34:53.695Z,2.00
2023-02-06T16:37:23.886Z,1.93
2023-02-06T16:39:52.200Z,1.80
2023-02-06T16:42:23.049Z,2.30
2023-02-06T16:44:55.984Z,2.37
2023-02-06T16:47:25.554Z,2.10
2023-02-06T16:49:53.767Z,2.00
2023-02-06T16:52:25.547Z,2.60
2023-02-06T16:54:55.751Z,3.23
2023-02-06T16:57:30.978Z,3.33
2023-02-06T16:59:59.094Z,3.80
2023-02-06T17:02:29.833Z,4.53
2023-02-06T17:04:57.869Z,6.33
2023-02-06T17:07:28.447Z,5.70
2023-02-06T17:09:57.424Z,6.13
2023-02-06T17:12:25.744Z,6.83
2023-02-06T17:14:53.880Z,6.90
2023-02-06T17:17:23.956Z,6.83
2023-02-06T17:19:54.442Z,5.47
2023-02-06T17:22:22.603Z,4.63
2023-02-06T17:24:50.649Z,4.47
2023-02-06T17:27:20.827Z,4.73
2023-02-06T17:29:49.948Z,6.47
2023-02-06T17:32:22.182Z,5.70
2023-02-06T17:34:54.403Z,6.43
2023-02-06T17:37:22.625Z,8.47
2023-02-06T17:39:52.056Z,25.13
2023-02-06T17:42:22.028Z,15.77
2023-02-06T17:44:50.602Z,13.23
2023-02-06T17:47:18.728Z,28.10
2023-02-06T17:49:47.851Z,24.60
2023-02-06T17:52:17.577Z,48.00
2023-02-06T17:54:46.038Z,86.47
2023-02-06T17:57:14.553Z,64.60
2023-02-06T17:59:42.856Z,15.83
2023-02-06T18:02:14.392Z,16.93
2023-02-06T18:04:42.369Z,14.33
2023-02-06T18:07:10.826Z,30.03
2023-02-06T18:09:42.066Z,30.37
2023-02-06T18:12:10.497Z,22.33
2023-02-06T18:14:41.234Z,21.67
2023-02-06T18:17:10.847Z,16.77
2023-02-06T18:19:42.471Z,15.07
2023-02-06T18:22:12.172Z,15.57
2023-02-06T18:24:41.779Z,15.33
2023-02-06T18:27:10.752Z,11.63
2023-02-06T18:29:49.438Z,11.30
2023-02-06T18:32:19.308Z,13.63
2023-02-06T18:34:48.173Z,13.40
2023-02-06T18:37:16.378Z,12.60
2023-02-06T18:39:45.723Z,13.30
2023-02-06T18:42:31.637Z,12.90
2023-02-06T18:44:59.677Z,13.17
2023-02-06T18:47:27.870Z,13.53
2023-02-06T18:49:56.063Z,13.10
2023-02-06T18:52:24.056Z,15.13
2023-02-06T18:54:53.555Z,15.47
2023-02-06T18:57:21.669Z,18.17
2023-02-06T18:59:49.615Z,18.53
2023-02-06T19:02:20.509Z,28.97
2023-02-06T19:04:48.782Z,38.93
2023-02-06T19:07:19.500Z,50.43
2023-02-06T19:09:47.724Z,45.60
2023-02-06T19:12:17.472Z,39.27
2023-02-06T19:14:45.433Z,46.53
2023-02-06T19:17:13.598Z,22.40
2023-02-06T19:19:41.770Z,25.47
2023-02-06T19:22:10.074Z,22.17
2023-02-06T19:24:38.016Z,22.17
2023-02-06T19:27:06.092Z,23.23
2023-02-06T19:29:36.727Z,22.30
2023-02-06T19:32:06.817Z,22.73
2023-02-06T19:34:36.290Z,22.37
2023-02-06T19:37:04.940Z,24.13
2023-02-06T19:39:34.441Z,25.00
2023-02-06T19:42:04.596Z,25.90
2023-02-06T19:44:35.701Z,24.03
2023-02-06T19:47:03.710Z,25.13
2023-02-06T19:49:32.090Z,24.63
2023-02-06T19:52:00.469Z,24.43
2023-02-06T19:54:28.767Z,24.73
2023-02-06T19:56:56.717Z,24.13
2023-02-06T19:59:29.912Z,25.10
2023-02-06T20:02:00.307Z,24.13
2023-02-06T20:04:32.394Z,25.70
2023-02-06T20:07:01.782Z,27.17
2023-02-06T20:09:30.867Z,25.67
2023-02-06T20:11:59.280Z,25.20
2023-02-06T20:14:28.037Z,27.67
2023-02-06T20:16:56.616Z,35.97
2023-02-06T20:19:27.893Z,42.27
2023-02-06T20:21:57.742Z,39.30
2023-02-06T20:24:28.206Z,39.97
2023-02-06T20:26:58.210Z,29.83
2023-02-06T20:29:28.922Z,19.70
2023-02-06T20:31:57.324Z,21.07
2023-02-06T20:34:27.613Z,18.47
2023-02-06T20:36:56.045Z,17.17
2023-02-06T20:39:28.735Z,21.43
2023-02-06T20:42:00.087Z,20.40
2023-02-06T20:44:28.652Z,16.80
2023-02-06T20:46:56.811Z,19.97
2023-02-06T20:49:28.739Z,20.83
2023-02-06T20:51:56.895Z,26.80
2023-02-06T20:54:26.082Z,20.33
2023-02-06T20:56:54.700Z,19.97
2023-02-06T20:59:23.103Z,16.03
2023-02-06T21:01:51.025Z,15.10
2023-02-06T21:04:19.854Z,15.43
2023-02-06T21:06:50.095Z,14.37
2023-02-06T21:09:19.291Z,14.20
2023-02-06T21:11:51.086Z,12.30
2023-02-06T21:14:19.564Z,11.87
2023-02-06T21:16:47.936Z,11.93
2023-02-06T21:19:21.373Z,13.03
2023-02-06T21:21:51.189Z,14.50
2023-02-06T21:24:19.396Z,15.90
2023-02-06T21:26:47.362Z,17.40
2023-02-06T21:29:16.252Z,18.60
2023-02-06T21:31:44.823Z,17.83
2023-02-06T21:34:15.059Z,23.20
2023-02-06T21:36:43.570Z,17.93
2023-02-06T21:39:17.592Z,16.97
2023-02-06T21:41:46.718Z,15.93
2023-02-06T21:44:14.739Z,54.63
2023-02-06T21:46:45.592Z,26.20
2023-02-06T21:49:16.392Z,35.80
2023-02-06T21:51:44.423Z,40.47
2023-02-06T21:54:13.783Z,35.47
2023-02-06T21:56:41.788Z,35.10
2023-02-06T21:59:11.370Z,28.73
2023-02-06T22:01:41.007Z,35.83
2023-02-06T22:04:10.720Z,27.63
2023-02-06T22:06:39.266Z,23.47
2023-02-06T22:09:09.660Z,19.53
2023-02-06T22:11:40.824Z,61.33
2023-02-06T22:14:12.708Z,31.00
2023-02-06T22:16:41.796Z,135.93
2023-02-06T22:19:11.134Z,104.90
2023-02-06T22:21:39.231Z,16.87
2023-02-06T22:24:09.204Z,12.83
2023-02-06T22:26:41.631Z,23.03
2023-02-06T22:29:13.683Z,57.33
2023-02-06T22:31:43.434Z,20.87
2023-02-06T22:34:15.588Z,16.03
2023-02-06T22:36:44.616Z,16.03
2023-02-06T22:39:13.893Z,17.23
2023-02-06T22:41:44.897Z,17.90
2023-02-06T22:44:16.493Z,39.63
2023-02-06T22:46:46.312Z,23.83
2023-02-06T22:49:14.847Z,20.43
2023-02-06T22:51:43.459Z,24.87
2023-02-06T22:54:11.442Z,41.50
2023-02-06T22:56:41.154Z,33.93
2023-02-06T22:59:12.057Z,24.40
2023-02-06T23:01:41.608Z,21.90
2023-02-06T23:04:12.573Z,21.80
2023-02-06T23:06:40.604Z,21.23
2023-02-06T23:09:09.858Z,20.47
2023-02-06T23:11:37.801Z,19.20
2023-02-06T23:14:07.002Z,21.33
2023-02-06T23:16:37.100Z,28.37
2023-02-06T23:19:06.976Z,150.33
2023-02-06T23:21:37.142Z,24.40
2023-02-06T23:24:06.302Z,20.43
2023-02-06T23:26:34.735Z,21.47
2023-02-06T23:29:05.133Z,21.03
2023-02-06T23:31:33.655Z,40.03
2023-02-06T23:34:03.276Z,20.23
2023-02-06T23:36:31.411Z,18.70
2023-02-06T23:39:02.328Z,18.63
2023-02-06T23:41:30.957Z,18.60
2023-02-06T23:44:03.774Z,21.47
2023-02-06T23:46:34.544Z,19.40
2023-02-06T23:49:04.288Z,26.13
2023-02-06T23:51:33.014Z,19.73
2023-02-06T23:54:01.371Z,20.30
2023-02-06T23:56:31.378Z,41.27
2023-02-06T23:59:01.246Z,26.83
